CSN7701 ZSAM-ZSNJ
Flight info
| Callsign | CSN7701 |
|---|---|
| Flight time | 1h 20m |
| Altitude | 33100 |
| Route | DOVPU7Y DOVPU W643 FOC W644 LEVGU/K0850S1160 W644 AKAVO/K0846S1130 A470 EMRID/K0841S1160 V143 OLRIS |
| Aircraft | A320/M-SDE3FGHIRWY/LB1 |
Departure
| Time | 2026-04-23 00:59 |
|---|---|
| Airport | Xiamen Gaoqi International Airport (ZSAM) |
Arrival
| Time | 2026-04-23 02:19 |
|---|---|
| Airport | Nanjing Lukou International Airport (ZSNJ) |
| Time | Latitude | Longitude | Altitude | Speed | Heading |
|---|---|---|---|---|---|
| 2026-04-23 00:37 | 24.54883 | 118.14038 | 46 ft | 0 kts | 232° |
| 2026-04-23 00:53 | 24.54895 | 118.14055 | 43 ft | 4 kts | 232° |
| 2026-04-23 00:53 | 24.54912 | 118.14078 | 46 ft | 4 kts | 231° |
| 2026-04-23 00:53 | 24.54929 | 118.14101 | 42 ft | 4 kts | 231° |
| 2026-04-23 00:54 | 24.54933 | 118.14106 | 42 ft | 0 kts | 231° |
| 2026-04-23 00:56 | 24.54929 | 118.14101 | 42 ft | 2 kts | 236° |
| 2026-04-23 00:56 | 24.54935 | 118.14078 | 46 ft | 8 kts | 306° |
| 2026-04-23 00:56 | 24.55009 | 118.14019 | 46 ft | 18 kts | 322° |
| 2026-04-23 00:57 | 24.55106 | 118.14027 | 45 ft | 17 kts | 49° |
| 2026-04-23 00:57 | 24.55204 | 118.14158 | 45 ft | 14 kts | 38° |
| 2026-04-23 00:57 | 24.55259 | 118.14152 | 45 ft | 13 kts | 326° |
| 2026-04-23 00:57 | 24.55328 | 118.14081 | 43 ft | 11 kts | 292° |
| 2026-04-23 00:58 | 24.55293 | 118.14000 | 43 ft | 14 kts | 232° |
| 2026-04-23 00:58 | 24.55221 | 118.13899 | 45 ft | 29 kts | 232° |
| 2026-04-23 00:58 | 24.54936 | 118.13500 | 50 ft | 100 kts | 232° |
| 2026-04-23 00:58 | 24.54390 | 118.12737 | 50 ft | 151 kts | 232° |
| 2026-04-23 00:59 | 24.53694 | 118.11751 | 499 ft | 162 kts | 233° |
| 2026-04-23 00:59 | 24.52995 | 118.10776 | 1257 ft | 161 kts | 232° |
| 2026-04-23 00:59 | 24.52254 | 118.09744 | 1685 ft | 184 kts | 233° |
| 2026-04-23 00:59 | 24.51423 | 118.08578 | 2192 ft | 202 kts | 233° |
| 2026-04-23 01:00 | 24.50549 | 118.07353 | 2987 ft | 205 kts | 234° |
| 2026-04-23 01:00 | 24.49662 | 118.06115 | 3803 ft | 207 kts | 235° |
| 2026-04-23 01:00 | 24.48768 | 118.04869 | 4620 ft | 211 kts | 235° |
| 2026-04-23 01:00 | 24.47860 | 118.03600 | 4964 ft | 211 kts | 234° |
| 2026-04-23 01:01 | 24.46950 | 118.02330 | 5670 ft | 211 kts | 235° |
| 2026-04-23 01:01 | 24.46045 | 118.01067 | 6557 ft | 210 kts | 234° |
| 2026-04-23 01:01 | 24.45141 | 117.99807 | 7405 ft | 210 kts | 234° |
| 2026-04-23 01:01 | 24.44079 | 117.98700 | 8223 ft | 214 kts | 216° |
| 2026-04-23 01:02 | 24.42693 | 117.98064 | 9071 ft | 220 kts | 197° |
| 2026-04-23 01:02 | 24.41134 | 117.98010 | 9828 ft | 232 kts | 181° |
| 2026-04-23 01:02 | 24.39443 | 117.98294 | 10138 ft | 262 kts | 171° |
| 2026-04-23 01:02 | 24.37736 | 117.99286 | 10431 ft | 298 kts | 143° |
| 2026-04-23 01:03 | 24.36541 | 118.01238 | 10959 ft | 322 kts | 111° |
| 2026-04-23 01:03 | 24.36317 | 118.03705 | 11640 ft | 333 kts | 81° |
| 2026-04-23 01:03 | 24.37143 | 118.06062 | 12366 ft | 334 kts | 52° |
| 2026-04-23 01:03 | 24.38827 | 118.07750 | 13098 ft | 328 kts | 23° |
| 2026-04-23 01:04 | 24.40941 | 118.08605 | 13827 ft | 325 kts | 13° |
| 2026-04-23 01:04 | 24.42980 | 118.09738 | 14459 ft | 337 kts | 35° |
| 2026-04-23 01:04 | 24.46137 | 118.13831 | 15152 ft | 372 kts | 49° |
| 2026-04-23 01:05 | 24.47760 | 118.16143 | 15273 ft | 392 kts | 50° |
| 2026-04-23 01:05 | 24.49441 | 118.18553 | 15622 ft | 402 kts | 50° |
| 2026-04-23 01:05 | 24.51157 | 118.21015 | 16140 ft | 408 kts | 50° |
| 2026-04-23 01:05 | 24.52893 | 118.23496 | 16685 ft | 412 kts | 50° |
| 2026-04-23 01:06 | 24.54672 | 118.26027 | 17236 ft | 416 kts | 49° |
| 2026-04-23 01:06 | 24.56430 | 118.28515 | 17784 ft | 420 kts | 49° |
| 2026-04-23 01:06 | 24.58255 | 118.31091 | 18308 ft | 423 kts | 49° |
| 2026-04-23 01:06 | 24.60121 | 118.33605 | 18767 ft | 425 kts | 43° |
| 2026-04-23 01:07 | 24.62309 | 118.35787 | 19226 ft | 425 kts | 33° |
| 2026-04-23 01:07 | 24.64791 | 118.37525 | 19696 ft | 423 kts | 24° |
| 2026-04-23 01:07 | 24.67394 | 118.39075 | 20149 ft | 427 kts | 24° |
| 2026-04-23 01:07 | 24.70018 | 118.40641 | 20595 ft | 431 kts | 24° |
| 2026-04-23 01:08 | 24.72665 | 118.42225 | 21057 ft | 435 kts | 24° |
| 2026-04-23 01:08 | 24.75332 | 118.43829 | 21512 ft | 438 kts | 24° |
| 2026-04-23 01:08 | 24.77978 | 118.45423 | 21948 ft | 442 kts | 24° |
| 2026-04-23 01:08 | 24.80725 | 118.47078 | 22386 ft | 446 kts | 24° |
| 2026-04-23 01:09 | 24.83457 | 118.48725 | 22809 ft | 449 kts | 24° |
| 2026-04-23 01:09 | 24.86156 | 118.50503 | 23224 ft | 457 kts | 31° |
| 2026-04-23 01:09 | 24.88619 | 118.52772 | 23591 ft | 466 kts | 41° |
| 2026-04-23 01:09 | 24.90858 | 118.55386 | 23929 ft | 471 kts | 43° |
| 2026-04-23 01:10 | 24.93101 | 118.58028 | 24279 ft | 474 kts | 43° |
| 2026-04-23 01:10 | 24.95363 | 118.60687 | 24638 ft | 477 kts | 43° |
| 2026-04-23 01:10 | 24.97639 | 118.63357 | 24968 ft | 479 kts | 43° |
| 2026-04-23 01:10 | 24.99932 | 118.66041 | 25317 ft | 482 kts | 43° |
| 2026-04-23 01:11 | 25.02237 | 118.68737 | 25668 ft | 485 kts | 43° |
| 2026-04-23 01:11 | 25.04556 | 118.71451 | 26009 ft | 488 kts | 43° |
| 2026-04-23 01:11 | 25.06887 | 118.74184 | 26333 ft | 491 kts | 43° |
| 2026-04-23 01:11 | 25.09229 | 118.76940 | 26681 ft | 494 kts | 43° |
| 2026-04-23 01:12 | 25.11588 | 118.79716 | 27036 ft | 497 kts | 43° |
| 2026-04-23 01:12 | 25.13957 | 118.82504 | 27378 ft | 499 kts | 43° |
| 2026-04-23 01:12 | 25.16338 | 118.85305 | 27734 ft | 502 kts | 43° |
| 2026-04-23 01:12 | 25.18732 | 118.88124 | 28076 ft | 505 kts | 43° |
| 2026-04-23 01:13 | 25.21142 | 118.90962 | 28424 ft | 508 kts | 43° |
| 2026-04-23 01:13 | 25.23562 | 118.93812 | 28772 ft | 510 kts | 43° |
| 2026-04-23 01:13 | 25.25999 | 118.96683 | 29104 ft | 513 kts | 43° |
| 2026-04-23 01:13 | 25.28480 | 118.99602 | 29439 ft | 516 kts | 43° |
| 2026-04-23 01:14 | 25.30956 | 119.02495 | 29793 ft | 519 kts | 42° |
| 2026-04-23 01:14 | 25.33451 | 119.05395 | 30089 ft | 522 kts | 42° |
| 2026-04-23 01:14 | 25.35960 | 119.08304 | 30479 ft | 522 kts | 42° |
| 2026-04-23 01:14 | 25.38462 | 119.11204 | 30911 ft | 521 kts | 41° |
| 2026-04-23 01:15 | 25.40958 | 119.14104 | 31356 ft | 521 kts | 41° |
| 2026-04-23 01:15 | 25.43456 | 119.17010 | 31779 ft | 520 kts | 41° |
| 2026-04-23 01:15 | 25.45945 | 119.19915 | 32200 ft | 520 kts | 41° |
| 2026-04-23 01:15 | 25.48433 | 119.22825 | 32625 ft | 520 kts | 41° |
| 2026-04-23 01:16 | 25.50920 | 119.25736 | 32894 ft | 521 kts | 41° |
| 2026-04-23 01:16 | 25.53407 | 119.28651 | 32961 ft | 520 kts | 41° |
| 2026-04-23 01:16 | 25.58360 | 119.34482 | 32958 ft | 519 kts | 41° |
| 2026-04-23 01:17 | 25.63087 | 119.40074 | 32960 ft | 519 kts | 41° |
| 2026-04-23 01:17 | 25.68028 | 119.45922 | 32960 ft | 520 kts | 41° |
| 2026-04-23 01:18 | 25.72970 | 119.51771 | 32961 ft | 520 kts | 41° |
| 2026-04-23 01:18 | 25.78177 | 119.57256 | 32964 ft | 510 kts | 29° |
| 2026-04-23 01:19 | 25.84223 | 119.61124 | 32967 ft | 499 kts | 19° |
| 2026-04-23 01:19 | 25.90399 | 119.64639 | 32959 ft | 499 kts | 19° |
| 2026-04-23 01:20 | 25.96629 | 119.68165 | 32960 ft | 500 kts | 19° |
| 2026-04-23 01:20 | 26.02845 | 119.71642 | 32960 ft | 500 kts | 18° |
| 2026-04-23 01:21 | 26.06023 | 119.73105 | 32961 ft | 489 kts | 9° |
| 2026-04-23 01:21 | 26.09286 | 119.74007 | 32964 ft | 478 kts | 360° |
| 2026-04-23 01:21 | 26.12553 | 119.74357 | 32965 ft | 467 kts | 351° |
| 2026-04-23 01:21 | 26.15764 | 119.74228 | 32966 ft | 460 kts | 346° |
| 2026-04-23 01:22 | 26.22163 | 119.73813 | 32975 ft | 461 kts | 347° |
| 2026-04-23 01:22 | 26.28572 | 119.73420 | 32985 ft | 461 kts | 347° |
| 2026-04-23 01:23 | 26.34986 | 119.73027 | 32992 ft | 462 kts | 347° |
| 2026-04-23 01:23 | 26.41400 | 119.72631 | 32998 ft | 461 kts | 346° |
| 2026-04-23 01:24 | 26.47809 | 119.72244 | 33006 ft | 463 kts | 348° |
| 2026-04-23 01:24 | 26.54286 | 119.72237 | 32998 ft | 468 kts | 351° |
| 2026-04-23 01:25 | 26.60798 | 119.72507 | 33006 ft | 469 kts | 352° |
| 2026-04-23 01:25 | 26.67306 | 119.72749 | 33008 ft | 467 kts | 351° |
| 2026-04-23 01:26 | 26.73798 | 119.72894 | 33005 ft | 466 kts | 351° |
| 2026-04-23 01:26 | 26.80284 | 119.73004 | 33012 ft | 466 kts | 350° |
| 2026-04-23 01:27 | 26.86818 | 119.73124 | 33015 ft | 467 kts | 351° |
| 2026-04-23 01:27 | 26.93313 | 119.73261 | 33016 ft | 467 kts | 351° |
| 2026-04-23 01:28 | 26.99622 | 119.72622 | 33023 ft | 444 kts | 334° |
| 2026-04-23 01:28 | 27.02494 | 119.71514 | 33020 ft | 430 kts | 325° |
| 2026-04-23 01:28 | 27.05094 | 119.69961 | 33021 ft | 419 kts | 318° |
| 2026-04-23 01:29 | 27.10057 | 119.66536 | 33018 ft | 419 kts | 318° |
| 2026-04-23 01:29 | 27.15039 | 119.63121 | 33023 ft | 419 kts | 319° |
| 2026-04-23 01:30 | 27.20021 | 119.59711 | 33027 ft | 420 kts | 318° |
| 2026-04-23 01:30 | 27.25207 | 119.56581 | 33022 ft | 436 kts | 330° |
| 2026-04-23 01:31 | 27.27159 | 119.55956 | 33021 ft | 447 kts | 337° |
| 2026-04-23 01:31 | 27.30308 | 119.55564 | 33029 ft | 464 kts | 348° |
| 2026-04-23 01:31 | 27.36837 | 119.55595 | 33024 ft | 466 kts | 349° |
| 2026-04-23 01:32 | 27.43321 | 119.55621 | 33023 ft | 466 kts | 349° |
| 2026-04-23 01:32 | 27.49808 | 119.55634 | 33025 ft | 467 kts | 349° |
| 2026-04-23 01:33 | 27.56303 | 119.55668 | 33026 ft | 467 kts | 349° |
| 2026-04-23 01:33 | 27.62816 | 119.55716 | 33029 ft | 468 kts | 349° |
| 2026-04-23 01:34 | 27.69324 | 119.55760 | 33026 ft | 468 kts | 349° |
| 2026-04-23 01:34 | 27.75831 | 119.55797 | 33034 ft | 468 kts | 349° |
| 2026-04-23 01:35 | 27.82357 | 119.55833 | 33038 ft | 469 kts | 349° |
| 2026-04-23 01:35 | 27.88879 | 119.55876 | 33039 ft | 469 kts | 348° |
| 2026-04-23 01:36 | 27.95411 | 119.55911 | 33042 ft | 469 kts | 349° |
| 2026-04-23 01:36 | 28.01942 | 119.56005 | 33038 ft | 469 kts | 349° |
| 2026-04-23 01:37 | 28.08532 | 119.56130 | 33047 ft | 471 kts | 349° |
| 2026-04-23 01:37 | 28.15095 | 119.56334 | 33061 ft | 474 kts | 351° |
| 2026-04-23 01:38 | 28.21688 | 119.56743 | 33058 ft | 475 kts | 352° |
| 2026-04-23 01:38 | 28.28286 | 119.57173 | 33051 ft | 474 kts | 351° |
| 2026-04-23 01:39 | 28.34871 | 119.57554 | 33058 ft | 474 kts | 351° |
| 2026-04-23 01:39 | 28.41468 | 119.57911 | 33066 ft | 474 kts | 351° |
| 2026-04-23 01:40 | 28.48061 | 119.58264 | 33076 ft | 474 kts | 351° |
| 2026-04-23 01:40 | 28.54652 | 119.58665 | 33083 ft | 474 kts | 351° |
| 2026-04-23 01:41 | 28.61240 | 119.59082 | 33085 ft | 474 kts | 351° |
| 2026-04-23 01:41 | 28.67819 | 119.59500 | 33092 ft | 474 kts | 351° |
| 2026-04-23 01:42 | 28.74397 | 119.59904 | 33095 ft | 473 kts | 351° |
| 2026-04-23 01:42 | 28.80972 | 119.60307 | 33098 ft | 473 kts | 351° |
| 2026-04-23 01:43 | 28.87585 | 119.60718 | 33098 ft | 473 kts | 351° |
| 2026-04-23 01:43 | 28.94120 | 119.61126 | 33109 ft | 473 kts | 351° |
| 2026-04-23 01:44 | 29.00734 | 119.61532 | 33107 ft | 473 kts | 351° |
| 2026-04-23 01:44 | 29.07305 | 119.61936 | 33106 ft | 473 kts | 351° |
| 2026-04-23 01:45 | 29.13878 | 119.62350 | 33115 ft | 473 kts | 351° |
| 2026-04-23 01:45 | 29.20452 | 119.62753 | 33116 ft | 473 kts | 351° |
| 2026-04-23 01:46 | 29.27020 | 119.63153 | 33114 ft | 472 kts | 351° |
| 2026-04-23 01:46 | 29.33583 | 119.63554 | 33115 ft | 473 kts | 351° |
| 2026-04-23 01:47 | 29.40155 | 119.63956 | 33115 ft | 473 kts | 352° |
| 2026-04-23 01:47 | 29.46724 | 119.64362 | 33113 ft | 472 kts | 352° |
| 2026-04-23 01:48 | 29.53301 | 119.64907 | 33113 ft | 483 kts | 359° |
| 2026-04-23 01:48 | 29.56606 | 119.65866 | 33118 ft | 498 kts | 9° |
| 2026-04-23 01:48 | 29.59833 | 119.67446 | 33114 ft | 506 kts | 15° |
| 2026-04-23 01:49 | 29.66267 | 119.70875 | 33119 ft | 506 kts | 15° |
| 2026-04-23 01:49 | 29.72672 | 119.74266 | 33122 ft | 506 kts | 15° |
| 2026-04-23 01:50 | 29.79065 | 119.77643 | 33115 ft | 506 kts | 15° |
| 2026-04-23 01:50 | 29.85473 | 119.81039 | 33123 ft | 506 kts | 15° |
| 2026-04-23 01:51 | 29.91864 | 119.84443 | 33129 ft | 506 kts | 16° |
| 2026-04-23 01:51 | 29.98250 | 119.87841 | 33133 ft | 505 kts | 16° |
| 2026-04-23 01:52 | 30.04618 | 119.91236 | 33135 ft | 504 kts | 16° |
| 2026-04-23 01:52 | 30.10967 | 119.94632 | 33137 ft | 502 kts | 17° |
| 2026-04-23 01:53 | 30.17307 | 119.98024 | 33140 ft | 501 kts | 17° |
| 2026-04-23 01:53 | 30.23675 | 120.01426 | 33135 ft | 500 kts | 17° |
| 2026-04-23 01:54 | 30.29932 | 120.04778 | 33133 ft | 498 kts | 17° |
| 2026-04-23 01:54 | 30.36254 | 120.08168 | 33138 ft | 497 kts | 18° |
| 2026-04-23 01:55 | 30.42619 | 120.11022 | 33137 ft | 481 kts | 4° |
| 2026-04-23 01:55 | 30.45895 | 120.11468 | 33138 ft | 467 kts | 353° |
| 2026-04-23 01:55 | 30.49092 | 120.11222 | 33139 ft | 455 kts | 342° |
| 2026-04-23 01:56 | 30.52123 | 120.10349 | 33138 ft | 443 kts | 333° |
| 2026-04-23 01:56 | 30.54899 | 120.08913 | 33138 ft | 433 kts | 323° |
| 2026-04-23 01:56 | 30.59760 | 120.04952 | 33136 ft | 426 kts | 316° |
| 2026-04-23 01:57 | 30.64539 | 120.00875 | 33133 ft | 426 kts | 317° |
| 2026-04-23 01:57 | 30.66934 | 119.98836 | 32922 ft | 426 kts | 317° |
| 2026-04-23 01:57 | 30.69323 | 119.96802 | 32672 ft | 426 kts | 317° |
| 2026-04-23 01:58 | 30.71716 | 119.94765 | 32423 ft | 427 kts | 317° |
| 2026-04-23 01:58 | 30.74147 | 119.92694 | 32173 ft | 427 kts | 317° |
| 2026-04-23 01:58 | 30.76537 | 119.90649 | 31929 ft | 427 kts | 317° |
| 2026-04-23 01:58 | 30.78927 | 119.88602 | 31688 ft | 428 kts | 317° |
| 2026-04-23 01:59 | 30.81327 | 119.86543 | 31448 ft | 428 kts | 317° |
| 2026-04-23 01:59 | 30.83721 | 119.84486 | 31206 ft | 428 kts | 317° |
| 2026-04-23 01:59 | 30.86116 | 119.82429 | 30977 ft | 429 kts | 317° |
| 2026-04-23 01:59 | 30.87742 | 119.81032 | 30814 ft | 429 kts | 317° |
| 2026-04-23 02:00 | 30.90142 | 119.78971 | 30588 ft | 429 kts | 317° |
| 2026-04-23 02:00 | 30.92551 | 119.76906 | 30299 ft | 429 kts | 317° |
| 2026-04-23 02:00 | 30.94968 | 119.74834 | 29290 ft | 433 kts | 317° |
| 2026-04-23 02:00 | 30.98180 | 119.72078 | 28477 ft | 425 kts | 317° |
| 2026-04-23 02:01 | 30.99783 | 119.70701 | 28037 ft | 421 kts | 317° |
| 2026-04-23 02:01 | 31.02131 | 119.68682 | 27390 ft | 418 kts | 317° |
| 2026-04-23 02:01 | 31.04462 | 119.66674 | 26650 ft | 417 kts | 317° |
| 2026-04-23 02:01 | 31.06793 | 119.64668 | 25927 ft | 415 kts | 317° |
| 2026-04-23 02:02 | 31.09107 | 119.62671 | 25218 ft | 413 kts | 317° |
| 2026-04-23 02:02 | 31.11412 | 119.60679 | 24538 ft | 411 kts | 317° |
| 2026-04-23 02:02 | 31.13703 | 119.58696 | 23857 ft | 409 kts | 317° |
| 2026-04-23 02:02 | 31.15984 | 119.56722 | 23113 ft | 407 kts | 318° |
| 2026-04-23 02:03 | 31.18255 | 119.54756 | 22335 ft | 405 kts | 318° |
| 2026-04-23 02:03 | 31.20515 | 119.52802 | 21578 ft | 403 kts | 318° |
| 2026-04-23 02:03 | 31.22767 | 119.50856 | 20841 ft | 403 kts | 319° |
| 2026-04-23 02:03 | 31.25022 | 119.48902 | 20119 ft | 403 kts | 319° |
| 2026-04-23 02:04 | 31.27271 | 119.46951 | 19406 ft | 402 kts | 319° |
| 2026-04-23 02:04 | 31.29510 | 119.45007 | 18715 ft | 401 kts | 319° |
| 2026-04-23 02:04 | 31.31752 | 119.43064 | 17984 ft | 400 kts | 320° |
| 2026-04-23 02:04 | 31.33984 | 119.41130 | 17218 ft | 399 kts | 320° |
| 2026-04-23 02:05 | 31.36236 | 119.39173 | 16452 ft | 397 kts | 320° |
| 2026-04-23 02:05 | 31.38452 | 119.37242 | 15716 ft | 397 kts | 321° |
| 2026-04-23 02:05 | 31.40663 | 119.35315 | 14990 ft | 395 kts | 321° |
| 2026-04-23 02:05 | 31.42858 | 119.33402 | 14291 ft | 393 kts | 321° |
| 2026-04-23 02:06 | 31.45035 | 119.31504 | 13561 ft | 383 kts | 322° |
| 2026-04-23 02:06 | 31.47116 | 119.29693 | 12784 ft | 364 kts | 322° |
| 2026-04-23 02:06 | 31.49100 | 119.27964 | 12025 ft | 348 kts | 322° |
| 2026-04-23 02:06 | 31.51009 | 119.26299 | 11302 ft | 337 kts | 322° |
| 2026-04-23 02:07 | 31.52865 | 119.24681 | 10579 ft | 329 kts | 322° |
| 2026-04-23 02:07 | 31.54643 | 119.23040 | 9864 ft | 321 kts | 316° |
| 2026-04-23 02:07 | 31.56087 | 119.21133 | 9522 ft | 302 kts | 306° |
| 2026-04-23 02:07 | 31.57181 | 119.19098 | 9292 ft | 292 kts | 299° |
| 2026-04-23 02:08 | 31.58176 | 119.17055 | 9061 ft | 287 kts | 300° |
| 2026-04-23 02:08 | 31.59163 | 119.15036 | 8828 ft | 283 kts | 300° |
| 2026-04-23 02:08 | 31.60130 | 119.13056 | 8603 ft | 279 kts | 300° |
| 2026-04-23 02:08 | 31.61101 | 119.11064 | 8368 ft | 275 kts | 300° |
| 2026-04-23 02:09 | 31.62042 | 119.09133 | 8136 ft | 271 kts | 300° |
| 2026-04-23 02:09 | 31.62966 | 119.07229 | 7913 ft | 266 kts | 300° |
| 2026-04-23 02:09 | 31.63871 | 119.05362 | 7690 ft | 262 kts | 301° |
| 2026-04-23 02:09 | 31.64766 | 119.03519 | 7470 ft | 258 kts | 301° |
| 2026-04-23 02:10 | 31.65647 | 119.01705 | 7244 ft | 254 kts | 301° |
| 2026-04-23 02:10 | 31.66501 | 118.99904 | 7035 ft | 251 kts | 296° |
| 2026-04-23 02:10 | 31.66999 | 118.97951 | 6810 ft | 250 kts | 278° |
| 2026-04-23 02:10 | 31.66978 | 118.95926 | 6588 ft | 248 kts | 261° |
| 2026-04-23 02:11 | 31.66457 | 118.94011 | 6380 ft | 247 kts | 244° |
| 2026-04-23 02:11 | 31.65574 | 118.92300 | 6141 ft | 244 kts | 238° |
| 2026-04-23 02:11 | 31.64673 | 118.90623 | 5913 ft | 243 kts | 239° |
| 2026-04-23 02:11 | 31.63778 | 118.88947 | 5677 ft | 241 kts | 239° |
| 2026-04-23 02:12 | 31.62892 | 118.87287 | 5455 ft | 240 kts | 238° |
| 2026-04-23 02:12 | 31.61994 | 118.85607 | 5221 ft | 239 kts | 238° |
| 2026-04-23 02:12 | 31.61116 | 118.83967 | 4990 ft | 236 kts | 238° |
| 2026-04-23 02:12 | 31.60248 | 118.82350 | 4754 ft | 233 kts | 238° |
| 2026-04-23 02:13 | 31.59393 | 118.80756 | 4526 ft | 229 kts | 238° |
| 2026-04-23 02:13 | 31.58551 | 118.79187 | 4291 ft | 225 kts | 238° |
| 2026-04-23 02:13 | 31.57726 | 118.77646 | 4061 ft | 222 kts | 238° |
| 2026-04-23 02:13 | 31.57062 | 118.76040 | 3823 ft | 218 kts | 262° |
| 2026-04-23 02:14 | 31.57336 | 118.74329 | 3552 ft | 213 kts | 306° |
| 2026-04-23 02:14 | 31.58439 | 118.73215 | 3325 ft | 211 kts | 330° |
| 2026-04-23 02:14 | 31.59698 | 118.72303 | 3074 ft | 213 kts | 332° |
| 2026-04-23 02:14 | 31.61040 | 118.71665 | 2909 ft | 205 kts | 351° |
| 2026-04-23 02:15 | 31.63645 | 118.71978 | 2645 ft | 180 kts | 27° |
| 2026-04-23 02:15 | 31.64670 | 118.72733 | 2487 ft | 167 kts | 44° |
| 2026-04-23 02:15 | 31.65402 | 118.73698 | 2273 ft | 151 kts | 59° |
| 2026-04-23 02:16 | 31.65932 | 118.74685 | 2092 ft | 136 kts | 59° |
| 2026-04-23 02:16 | 31.66420 | 118.75595 | 1923 ft | 129 kts | 59° |
| 2026-04-23 02:16 | 31.66889 | 118.76471 | 1746 ft | 125 kts | 59° |
| 2026-04-23 02:16 | 31.67351 | 118.77333 | 1569 ft | 125 kts | 59° |
| 2026-04-23 02:17 | 31.67815 | 118.78199 | 1401 ft | 126 kts | 58° |
| 2026-04-23 02:17 | 31.68279 | 118.79067 | 1221 ft | 126 kts | 58° |
| 2026-04-23 02:17 | 31.68747 | 118.79941 | 1054 ft | 126 kts | 59° |
| 2026-04-23 02:17 | 31.69212 | 118.80810 | 879 ft | 126 kts | 58° |
| 2026-04-23 02:18 | 31.69691 | 118.81705 | 693 ft | 128 kts | 58° |
| 2026-04-23 02:18 | 31.70166 | 118.82595 | 549 ft | 129 kts | 57° |
| 2026-04-23 02:18 | 31.70641 | 118.83485 | 370 ft | 129 kts | 57° |
| 2026-04-23 02:18 | 31.71120 | 118.84378 | 199 ft | 130 kts | 58° |
| 2026-04-23 02:19 | 31.71600 | 118.85275 | 57 ft | 125 kts | 57° |
| 2026-04-23 02:19 | 31.71984 | 118.86001 | 59 ft | 81 kts | 58° |
| 2026-04-23 02:19 | 31.72200 | 118.86404 | 56 ft | 47 kts | 58° |
| 2026-04-23 02:19 | 31.72344 | 118.86622 | 50 ft | 26 kts | 38° |
| 2026-04-23 02:20 | 31.72500 | 118.86734 | 57 ft | 24 kts | 30° |
| 2026-04-23 02:20 | 31.72602 | 118.86719 | 57 ft | 16 kts | 328° |
| 2026-04-23 02:20 | 31.72699 | 118.86649 | 56 ft | 12 kts | 334° |
| 2026-04-23 02:20 | 31.72764 | 118.86694 | 58 ft | 10 kts | 12° |
| 2026-04-23 02:21 | 31.72822 | 118.86656 | 57 ft | 7 kts | 328° |
| 2026-04-23 02:21 | 31.72829 | 118.86651 | 51 ft | 0 kts | 328° |